sensor_id;sensor_type;location;lat;lon;timestamp;pressure;altitude;pressure_sealevel;temperature;humidity
47753;BME280;2038;51.728;6.674;2024-03-02T00:01:21;75810.91;;;-141.64;65.96
47753;BME280;2038;51.728;6.674;2024-03-02T00:03:48;75810.91;;;-141.64;65.90
47753;BME280;2038;51.728;6.674;2024-03-02T00:06:14;75820.66;;;-141.64;66.31
47753;BME280;2038;51.728;6.674;2024-03-02T00:08:45;75818.72;;;-141.64;66.63
47753;BME280;2038;51.728;6.674;2024-03-02T00:11:12;75816.75;;;-141.64;66.25
47753;BME280;2038;51.728;6.674;2024-03-02T00:13:40;75799.19;;;-141.64;65.83
47753;BME280;2038;51.728;6.674;2024-03-02T00:16:06;75797.25;;;-141.64;65.98
47753;BME280;2038;51.728;6.674;2024-03-02T00:18:33;75787.47;;;-141.64;66.11
47753;BME280;2038;51.728;6.674;2024-03-02T00:21:01;75771.88;;;-141.64;65.88
47753;BME280;2038;51.728;6.674;2024-03-02T00:23:32;75762.09;;;-141.64;65.69
47753;BME280;2038;51.728;6.674;2024-03-02T00:25:59;75752.34;;;-141.64;65.49
47753;BME280;2038;51.728;6.674;2024-03-02T00:28:34;75750.38;;;-141.64;65.51
47753;BME280;2038;51.728;6.674;2024-03-02T00:33:40;75744.53;;;-141.64;65.65
47753;BME280;2038;51.728;6.674;2024-03-02T00:36:08;75746.50;;;-141.64;65.70
47753;BME280;2038;51.728;6.674;2024-03-02T00:38:56;75736.72;;;-141.64;65.09
47753;BME280;2038;51.728;6.674;2024-03-02T00:41:27;75738.69;;;-141.64;65.13
47753;BME280;2038;51.728;6.674;2024-03-02T00:43:59;75732.81;;;-141.64;64.87
47753;BME280;2038;51.728;6.674;2024-03-02T00:46:34;75732.81;;;-141.64;65.31
47753;BME280;2038;51.728;6.674;2024-03-02T00:49:04;75726.97;;;-141.64;64.72
47753;BME280;2038;51.728;6.674;2024-03-02T00:51:37;75709.41;;;-141.64;64.74
47753;BME280;2038;51.728;6.674;2024-03-02T00:54:07;75713.31;;;-141.64;64.68
47753;BME280;2038;51.728;6.674;2024-03-02T00:56:35;75705.50;;;-141.64;64.58
47753;BME280;2038;51.728;6.674;2024-03-02T00:59:01;75695.72;;;-141.64;64.90
47753;BME280;2038;51.728;6.674;2024-03-02T01:01:28;75695.72;;;-141.64;64.46
47753;BME280;2038;51.728;6.674;2024-03-02T01:03:54;75697.69;;;-141.64;64.47
47753;BME280;2038;51.728;6.674;2024-03-02T01:06:20;75689.88;;;-141.64;64.61
47753;BME280;2038;51.728;6.674;2024-03-02T01:08:48;75695.72;;;-141.64;64.24
47753;BME280;2038;51.728;6.674;2024-03-02T01:11:17;75678.16;;;-141.64;64.67
47753;BME280;2038;51.728;6.674;2024-03-02T01:13:44;75676.22;;;-141.64;64.30
47753;BME280;2038;51.728;6.674;2024-03-02T01:16:12;75676.22;;;-141.64;64.30
47753;BME280;2038;51.728;6.674;2024-03-02T01:18:38;75676.22;;;-141.64;64.41
47753;BME280;2038;51.728;6.674;2024-03-02T01:21:04;75676.22;;;-141.64;64.06
47753;BME280;2038;51.728;6.674;2024-03-02T01:23:30;75672.31;;;-141.64;64.34
47753;BME280;2038;51.728;6.674;2024-03-02T01:25:57;75672.31;;;-141.64;64.14
47753;BME280;2038;51.728;6.674;2024-03-02T01:28:23;75672.31;;;-141.64;64.01
47753;BME280;2038;51.728;6.674;2024-03-02T01:30:49;75672.31;;;-141.64;64.03
47753;BME280;2038;51.728;6.674;2024-03-02T01:33:16;75678.16;;;-141.64;64.14
47753;BME280;2038;51.728;6.674;2024-03-02T01:35:43;75670.34;;;-141.64;64.27
47753;BME280;2038;51.728;6.674;2024-03-02T01:38:10;75674.25;;;-141.64;64.58
47753;BME280;2038;51.728;6.674;2024-03-02T01:40:37;75668.41;;;-141.64;64.69
47753;BME280;2038;51.728;6.674;2024-03-02T01:43:05;75674.25;;;-141.64;64.77
47753;BME280;2038;51.728;6.674;2024-03-02T01:45:32;75674.25;;;-141.64;64.44
47753;BME280;2038;51.728;6.674;2024-03-02T01:47:58;75672.31;;;-141.64;64.59
47753;BME280;2038;51.728;6.674;2024-03-02T01:50:30;75678.16;;;-141.64;64.84
47753;BME280;2038;51.728;6.674;2024-03-02T01:52:59;75668.41;;;-141.64;64.79
47753;BME280;2038;51.728;6.674;2024-03-02T01:55:26;75672.31;;;-141.64;64.99
47753;BME280;2038;51.728;6.674;2024-03-02T01:57:55;75672.31;;;-141.64;64.74
47753;BME280;2038;51.728;6.674;2024-03-02T02:00:22;75664.50;;;-141.64;64.49
47753;BME280;2038;51.728;6.674;2024-03-02T02:02:50;75664.50;;;-141.64;64.82
47753;BME280;2038;51.728;6.674;2024-03-02T02:05:17;75662.56;;;-141.64;64.26
47753;BME280;2038;51.728;6.674;2024-03-02T02:07:43;75650.84;;;-141.64;64.41
47753;BME280;2038;51.728;6.674;2024-03-02T02:10:13;75648.88;;;-141.64;64.27
47753;BME280;2038;51.728;6.674;2024-03-02T02:12:39;75656.69;;;-141.64;64.13
47753;BME280;2038;51.728;6.674;2024-03-02T02:15:28;75652.78;;;-141.64;64.08
47753;BME280;2038;51.728;6.674;2024-03-02T02:17:56;75654.75;;;-141.64;64.47
47753;BME280;2038;51.728;6.674;2024-03-02T02:20:24;75656.69;;;-141.64;64.81
47753;BME280;2038;51.728;6.674;2024-03-02T02:22:57;75652.78;;;-141.64;64.58
47753;BME280;2038;51.728;6.674;2024-03-02T02:25:28;75654.75;;;-141.64;64.44
47753;BME280;2038;51.728;6.674;2024-03-02T02:27:56;75660.59;;;-141.64;64.73
47753;BME280;2038;51.728;6.674;2024-03-02T02:30:25;75662.56;;;-141.64;64.68
47753;BME280;2038;51.728;6.674;2024-03-02T02:32:53;75662.56;;;-141.64;64.33
47753;BME280;2038;51.728;6.674;2024-03-02T02:35:20;75666.47;;;-141.64;64.61
47753;BME280;2038;51.728;6.674;2024-03-02T02:37:47;75662.56;;;-141.64;64.84
47753;BME280;2038;51.728;6.674;2024-03-02T02:40:15;75662.56;;;-141.64;65.13
47753;BME280;2038;51.728;6.674;2024-03-02T02:42:42;75666.47;;;-141.64;64.99
47753;BME280;2038;51.728;6.674;2024-03-02T02:45:08;75664.50;;;-141.64;65.08
47753;BME280;2038;51.728;6.674;2024-03-02T02:47:35;75670.34;;;-141.64;64.80
47753;BME280;2038;51.728;6.674;2024-03-02T02:50:02;75662.56;;;-141.64;64.44
47753;BME280;2038;51.728;6.674;2024-03-02T02:52:36;75650.84;;;-141.64;64.33
47753;BME280;2038;51.728;6.674;2024-03-02T02:55:09;75646.94;;;-141.64;64.04
47753;BME280;2038;51.728;6.674;2024-03-02T02:57:37;75637.19;;;-141.64;63.90
47753;BME280;2038;51.728;6.674;2024-03-02T03:00:07;75635.22;;;-141.64;nan
47753;BME280;2038;51.728;6.674;2024-03-02T03:02:40;75644.97;;;-141.64;63.90
47753;BME280;2038;51.728;6.674;2024-03-02T03:05:11;75646.94;;;-141.64;64.41
47753;BME280;2038;51.728;6.674;2024-03-02T03:07:40;75652.78;;;-141.64;64.59
47753;BME280;2038;51.728;6.674;2024-03-02T03:10:08;75656.69;;;-141.64;64.67
47753;BME280;2038;51.728;6.674;2024-03-02T03:12:35;75652.78;;;-141.64;64.87
47753;BME280;2038;51.728;6.674;2024-03-02T03:15:02;75650.84;;;-141.64;65.53
47753;BME280;2038;51.728;6.674;2024-03-02T03:17:30;75662.56;;;-141.64;65.39
47753;BME280;2038;51.728;6.674;2024-03-02T03:19:56;75666.47;;;-141.64;65.43
47753;BME280;2038;51.728;6.674;2024-03-02T03:22:23;75668.41;;;-141.64;65.25
47753;BME280;2038;51.728;6.674;2024-03-02T03:24:49;75668.41;;;-141.64;65.62
47753;BME280;2038;51.728;6.674;2024-03-02T03:27:15;75680.13;;;-141.64;65.76
47753;BME280;2038;51.728;6.674;2024-03-02T03:29:42;75689.88;;;-141.64;66.64
47753;BME280;2038;51.728;6.674;2024-03-02T03:32:08;75685.97;;;-141.64;66.80
47753;BME280;2038;51.728;6.674;2024-03-02T03:34:34;75691.84;;;-141.64;67.18
47753;BME280;2038;51.728;6.674;2024-03-02T03:37:01;75695.72;;;-141.64;67.02
47753;BME280;2038;51.728;6.674;2024-03-02T03:39:28;75697.69;;;-141.64;66.70
47753;BME280;2038;51.728;6.674;2024-03-02T03:41:54;75701.59;;;-141.64;66.97
47753;BME280;2038;51.728;6.674;2024-03-02T03:44:21;75707.44;;;-141.64;67.63
47753;BME280;2038;51.728;6.674;2024-03-02T03:46:47;75711.34;;;-141.64;67.63
47753;BME280;2038;51.728;6.674;2024-03-02T03:49:13;75709.41;;;-141.64;67.89
47753;BME280;2038;51.728;6.674;2024-03-02T03:51:40;75709.41;;;-141.64;67.76
47753;BME280;2038;51.728;6.674;2024-03-02T03:54:06;75725.00;;;-141.64;68.52
47753;BME280;2038;51.728;6.674;2024-03-02T03:56:32;75717.22;;;-141.64;68.86
47753;BME280;2038;51.728;6.674;2024-03-02T03:58:58;75709.41;;;-141.64;68.43
47753;BME280;2038;51.728;6.674;2024-03-02T04:01:25;75717.22;;;-141.64;68.81
47753;BME280;2038;51.728;6.674;2024-03-02T04:03:52;75715.25;;;-141.64;68.81
47753;BME280;2038;51.728;6.674;2024-03-02T04:06:18;75723.06;;;-141.64;68.99
47753;BME280;2038;51.728;6.674;2024-03-02T04:08:44;75728.91;;;-141.64;69.24
47753;BME280;2038;51.728;6.674;2024-03-02T04:11:10;75728.91;;;-141.64;68.86
47753;BME280;2038;51.728;6.674;2024-03-02T04:13:37;75740.63;;;-141.64;69.22
47753;BME280;2038;51.728;6.674;2024-03-02T04:16:03;75738.69;;;-141.64;69.27
47753;BME280;2038;51.728;6.674;2024-03-02T04:18:31;75750.38;;;-141.64;69.47
47753;BME280;2038;51.728;6.674;2024-03-02T04:20:58;75758.19;;;-141.64;69.35
47753;BME280;2038;51.728;6.674;2024-03-02T04:23:27;75762.09;;;-141.64;69.73
47753;BME280;2038;51.728;6.674;2024-03-02T04:25:54;75775.78;;;-141.64;69.78
47753;BME280;2038;51.728;6.674;2024-03-02T04:28:20;75783.56;;;-141.64;70.00
47753;BME280;2038;51.728;6.674;2024-03-02T04:30:46;75783.56;;;-141.64;69.93
47753;BME280;2038;51.728;6.674;2024-03-02T04:33:13;75793.34;;;-141.64;69.88
47753;BME280;2038;51.728;6.674;2024-03-02T04:35:40;75814.81;;;-141.64;70.40
47753;BME280;2038;51.728;6.674;2024-03-02T04:38:06;75826.53;;;-141.64;70.10
47753;BME280;2038;51.728;6.674;2024-03-02T04:40:32;75842.13;;;-141.64;70.71
47753;BME280;2038;51.728;6.674;2024-03-02T04:42:58;75842.13;;;-141.64;70.62
47753;BME280;2038;51.728;6.674;2024-03-02T04:45:25;75851.91;;;-141.64;70.84
47753;BME280;2038;51.728;6.674;2024-03-02T04:47:51;75855.81;;;-141.64;71.39
47753;BME280;2038;51.728;6.674;2024-03-02T04:50:17;75865.56;;;-141.64;71.51
47753;BME280;2038;51.728;6.674;2024-03-02T04:52:43;75865.56;;;-141.64;71.76
47753;BME280;2038;51.728;6.674;2024-03-02T04:55:10;75863.59;;;-141.64;71.59
47753;BME280;2038;51.728;6.674;2024-03-02T04:57:45;75867.50;;;-141.64;71.77
47753;BME280;2038;51.728;6.674;2024-03-02T05:00:13;75865.56;;;-141.64;71.66
47753;BME280;2038;51.728;6.674;2024-03-02T05:02:39;75869.47;;;-141.64;71.97
47753;BME280;2038;51.728;6.674;2024-03-02T05:05:06;75865.56;;;-141.64;72.00
47753;BME280;2038;51.728;6.674;2024-03-02T05:07:32;75865.56;;;-141.64;71.92
47753;BME280;2038;51.728;6.674;2024-03-02T05:09:58;75871.41;;;-141.64;72.06
47753;BME280;2038;51.728;6.674;2024-03-02T05:12:25;75865.56;;;-141.64;71.81
47753;BME280;2038;51.728;6.674;2024-03-02T05:15:10;75855.81;;;-141.64;72.38
47753;BME280;2038;51.728;6.674;2024-03-02T05:17:39;75853.84;;;-141.64;72.03
47753;BME280;2038;51.728;6.674;2024-03-02T05:20:07;75859.72;;;-141.64;71.59
47753;BME280;2038;51.728;6.674;2024-03-02T05:22:37;75851.91;;;-141.64;71.87
47753;BME280;2038;51.728;6.674;2024-03-02T05:25:04;75857.75;;;-141.64;72.09
47753;BME280;2038;51.728;6.674;2024-03-02T05:27:30;75869.47;;;-141.64;71.78
47753;BME280;2038;51.728;6.674;2024-03-02T05:29:59;75881.19;;;-141.64;72.38
47753;BME280;2038;51.728;6.674;2024-03-02T05:32:25;75885.09;;;-141.64;72.35
47753;BME280;2038;51.728;6.674;2024-03-02T05:34:52;75896.78;;;-141.64;72.48
47753;BME280;2038;51.728;6.674;2024-03-02T05:37:18;75912.41;;;-141.64;72.76
47753;BME280;2038;51.728;6.674;2024-03-02T05:39:44;75916.31;;;-141.64;72.63
47753;BME280;2038;51.728;6.674;2024-03-02T05:42:10;75924.13;;;-141.64;73.14
47753;BME280;2038;51.728;6.674;2024-03-02T05:44:37;75924.13;;;-141.64;73.01
47753;BME280;2038;51.728;6.674;2024-03-02T05:47:03;75939.75;;;-141.64;73.70
47753;BME280;2038;51.728;6.674;2024-03-02T05:49:30;75947.56;;;-141.64;73.47
47753;BME280;2038;51.728;6.674;2024-03-02T05:51:56;75945.59;;;-141.64;73.66
47753;BME280;2038;51.728;6.674;2024-03-02T05:54:23;75955.34;;;-141.64;73.69
47753;BME280;2038;51.728;6.674;2024-03-02T05:56:49;75963.16;;;-141.64;73.59
47753;BME280;2038;51.728;6.674;2024-03-02T05:59:15;75963.16;;;-141.64;73.18
47753;BME280;2038;51.728;6.674;2024-03-02T06:01:43;75974.88;;;-141.64;73.91
47753;BME280;2038;51.728;6.674;2024-03-02T06:04:12;75982.69;;;-141.64;73.83
47753;BME280;2038;51.728;6.674;2024-03-02T06:06:40;75990.50;;;-141.64;73.72
47753;BME280;2038;51.728;6.674;2024-03-02T06:09:07;75996.34;;;-141.64;73.48
47753;BME280;2038;51.728;6.674;2024-03-02T06:11:35;76010.03;;;-141.64;73.84
47753;BME280;2038;51.728;6.674;2024-03-02T06:14:02;76025.63;;;-141.64;73.52
47753;BME280;2038;51.728;6.674;2024-03-02T06:16:29;76051.00;;;-141.64;73.50
47753;BME280;2038;51.728;6.674;2024-03-02T06:18:56;76060.78;;;-141.64;73.60
47753;BME280;2038;51.728;6.674;2024-03-02T06:21:24;76070.53;;;-141.64;73.76
47753;BME280;2038;51.728;6.674;2024-03-02T06:23:50;76078.34;;;-141.64;73.45
47753;BME280;2038;51.728;6.674;2024-03-02T06:26:17;76090.06;;;-141.64;74.35
47753;BME280;2038;51.728;6.674;2024-03-02T06:28:45;76088.09;;;-141.64;74.62
47753;BME280;2038;51.728;6.674;2024-03-02T06:31:11;76080.31;;;-141.64;74.65
47753;BME280;2038;51.728;6.674;2024-03-02T06:33:38;76072.50;;;-141.64;75.55
47753;BME280;2038;51.728;6.674;2024-03-02T06:36:06;76062.72;;;-141.64;75.16
47753;BME280;2038;51.728;6.674;2024-03-02T06:38:35;76072.50;;;-141.64;74.86
47753;BME280;2038;51.728;6.674;2024-03-02T06:41:01;76078.34;;;-141.64;75.19
47753;BME280;2038;51.728;6.674;2024-03-02T06:43:28;76080.31;;;-141.64;75.14
47753;BME280;2038;51.728;6.674;2024-03-02T06:45:54;76082.25;;;-141.64;75.51
47753;BME280;2038;51.728;6.674;2024-03-02T06:48:20;76076.41;;;-141.64;75.46
47753;BME280;2038;51.728;6.674;2024-03-02T06:50:47;76064.69;;;-141.64;75.37
47753;BME280;2038;51.728;6.674;2024-03-02T06:53:14;76068.59;;;-141.64;75.49
47753;BME280;2038;51.728;6.674;2024-03-02T06:55:43;76060.78;;;-141.64;75.31
47753;BME280;2038;51.728;6.674;2024-03-02T06:58:11;76066.63;;;-141.64;75.52
47753;BME280;2038;51.728;6.674;2024-03-02T07:00:38;76066.63;;;-141.64;75.54
47753;BME280;2038;51.728;6.674;2024-03-02T07:03:05;76064.69;;;-141.64;75.31
47753;BME280;2038;51.728;6.674;2024-03-02T07:05:31;76068.59;;;-141.64;75.40
47753;BME280;2038;51.728;6.674;2024-03-02T07:07:57;76064.69;;;-141.64;75.25
47753;BME280;2038;51.728;6.674;2024-03-02T07:10:24;76064.69;;;-141.64;75.48
47753;BME280;2038;51.728;6.674;2024-03-02T07:12:50;76062.72;;;-141.64;75.11
47753;BME280;2038;51.728;6.674;2024-03-02T07:15:16;76060.78;;;-141.64;75.11
47753;BME280;2038;51.728;6.674;2024-03-02T07:18:09;76066.63;;;-141.64;75.28
47753;BME280;2038;51.728;6.674;2024-03-02T07:20:35;76064.69;;;-141.64;75.05
47753;BME280;2038;51.728;6.674;2024-03-02T07:23:01;76064.69;;;-141.64;74.79
47753;BME280;2038;51.728;6.674;2024-03-02T07:25:27;76060.78;;;-141.64;75.07
47753;BME280;2038;51.728;6.674;2024-03-02T07:27:54;76058.81;;;-141.64;74.36
47753;BME280;2038;51.728;6.674;2024-03-02T07:30:20;76049.06;;;-141.64;74.56
47753;BME280;2038;51.728;6.674;2024-03-02T07:32:46;76039.31;;;-141.64;74.67
47753;BME280;2038;51.728;6.674;2024-03-02T07:35:15;76033.44;;;-141.64;74.38
47753;BME280;2038;51.728;6.674;2024-03-02T07:37:42;76031.50;;;-141.64;74.64
47753;BME280;2038;51.728;6.674;2024-03-02T07:40:09;76031.50;;;-141.64;74.23
47753;BME280;2038;51.728;6.674;2024-03-02T07:42:40;76025.63;;;-141.64;73.92
47753;BME280;2038;51.728;6.674;2024-03-02T07:45:07;76021.72;;;-141.64;73.92
47753;BME280;2038;51.728;6.674;2024-03-02T07:47:36;76029.53;;;-141.64;74.16
47753;BME280;2038;51.728;6.674;2024-03-02T07:50:03;76025.63;;;-141.64;74.18
47753;BME280;2038;51.728;6.674;2024-03-02T07:52:32;76019.78;;;-141.64;74.10
47753;BME280;2038;51.728;6.674;2024-03-02T07:54:59;76015.88;;;-141.64;74.31
47753;BME280;2038;51.728;6.674;2024-03-02T07:57:26;75996.34;;;-141.64;73.88
47753;BME280;2038;51.728;6.674;2024-03-02T07:59:52;75984.63;;;-141.64;73.63
47753;BME280;2038;51.728;6.674;2024-03-02T08:02:19;75974.88;;;-141.64;74.08
47753;BME280;2038;51.728;6.674;2024-03-02T08:04:46;75961.22;;;-141.64;73.90
47753;BME280;2038;51.728;6.674;2024-03-02T08:07:13;75957.31;;;-141.64;73.69
47753;BME280;2038;51.728;6.674;2024-03-02T08:09:39;75955.34;;;-141.64;73.84
47753;BME280;2038;51.728;6.674;2024-03-02T08:12:05;75939.75;;;-141.64;73.89
47753;BME280;2038;51.728;6.674;2024-03-02T08:14:32;75929.97;;;-141.64;73.38
47753;BME280;2038;51.728;6.674;2024-03-02T08:16:58;75924.13;;;-141.64;73.71
47753;BME280;2038;51.728;6.674;2024-03-02T08:19:24;75914.38;;;-141.64;73.38
47753;BME280;2038;51.728;6.674;2024-03-02T08:21:51;75892.91;;;-141.64;72.67
47753;BME280;2038;51.728;6.674;2024-03-02T08:24:17;75877.28;;;-141.64;71.81
47753;BME280;2038;51.728;6.674;2024-03-02T08:26:44;75867.50;;;-141.64;71.27
47753;BME280;2038;51.728;6.674;2024-03-02T08:29:10;75851.91;;;-141.64;70.78
47753;BME280;2038;51.728;6.674;2024-03-02T08:31:37;75838.22;;;-141.64;70.52
47753;BME280;2038;51.728;6.674;2024-03-02T08:34:03;75834.31;;;-141.64;69.42
47753;BME280;2038;51.728;6.674;2024-03-02T08:36:30;75816.75;;;-141.64;69.10
47753;BME280;2038;51.728;6.674;2024-03-02T08:38:56;75816.75;;;-141.64;68.90
47753;BME280;2038;51.728;6.674;2024-03-02T08:41:22;75807.00;;;-141.64;68.72
47753;BME280;2038;51.728;6.674;2024-03-02T08:43:49;75803.09;;;-141.64;68.70
47753;BME280;2038;51.728;6.674;2024-03-02T08:46:15;75781.63;;;-141.64;68.53
47753;BME280;2038;51.728;6.674;2024-03-02T08:48:42;75771.88;;;-141.64;68.05
47753;BME280;2038;51.728;6.674;2024-03-02T08:51:08;75773.81;;;-141.64;67.99
47753;BME280;2038;51.728;6.674;2024-03-02T08:53:36;75773.81;;;-141.64;67.02
47753;BME280;2038;51.728;6.674;2024-03-02T08:56:03;75769.91;;;-141.64;67.30
47753;BME280;2038;51.728;6.674;2024-03-02T08:58:31;75756.25;;;-141.64;67.69
47753;BME280;2038;51.728;6.674;2024-03-02T09:00:58;75760.16;;;-141.64;67.52
47753;BME280;2038;51.728;6.674;2024-03-02T09:03:24;75756.25;;;-141.64;67.32
47753;BME280;2038;51.728;6.674;2024-03-02T09:05:51;75742.59;;;-141.64;67.21
47753;BME280;2038;51.728;6.674;2024-03-02T09:08:17;75738.69;;;-141.64;67.41
47753;BME280;2038;51.728;6.674;2024-03-02T09:10:43;75730.88;;;-141.64;67.20
47753;BME280;2038;51.728;6.674;2024-03-02T09:13:09;75726.97;;;-141.64;66.83
47753;BME280;2038;51.728;6.674;2024-03-02T09:15:36;75725.00;;;-141.64;66.84
47753;BME280;2038;51.728;6.674;2024-03-02T09:18:03;75719.16;;;-141.64;66.00
47753;BME280;2038;51.728;6.674;2024-03-02T09:20:30;75723.06;;;-141.64;66.10
47753;BME280;2038;51.728;6.674;2024-03-02T09:22:56;75717.22;;;-141.64;66.03
47753;BME280;2038;51.728;6.674;2024-03-02T09:25:22;75713.31;;;-141.64;65.86
47753;BME280;2038;51.728;6.674;2024-03-02T09:27:49;75699.63;;;-141.64;66.68
47753;BME280;2038;51.728;6.674;2024-03-02T09:30:15;75691.84;;;-141.64;66.02
47753;BME280;2038;51.728;6.674;2024-03-02T09:32:41;75678.16;;;-141.64;66.02
47753;BME280;2038;51.728;6.674;2024-03-02T09:35:08;75676.22;;;-141.64;65.98
47753;BME280;2038;51.728;6.674;2024-03-02T09:37:35;75670.34;;;-141.64;65.77
47753;BME280;2038;51.728;6.674;2024-03-02T09:40:02;75666.47;;;-141.64;65.82
47753;BME280;2038;51.728;6.674;2024-03-02T09:42:28;75658.66;;;-141.64;66.06
47753;BME280;2038;51.728;6.674;2024-03-02T09:44:55;75656.69;;;-141.64;65.46
47753;BME280;2038;51.728;6.674;2024-03-02T09:47:23;75643.03;;;-141.64;65.17
47753;BME280;2038;51.728;6.674;2024-03-02T09:49:49;75621.56;;;-141.64;64.35
47753;BME280;2038;51.728;6.674;2024-03-02T09:52:16;75629.38;;;-141.64;63.86
47753;BME280;2038;51.728;6.674;2024-03-02T09:54:43;75621.56;;;-141.64;63.77
47753;BME280;2038;51.728;6.674;2024-03-02T09:57:09;75604.00;;;-141.64;63.75
47753;BME280;2038;51.728;6.674;2024-03-02T09:59:35;75602.03;;;-141.64;63.66
47753;BME280;2038;51.728;6.674;2024-03-02T10:02:05;75598.13;;;-141.64;63.34
47753;BME280;2038;51.728;6.674;2024-03-02T10:04:33;75582.53;;;-141.64;63.69
47753;BME280;2038;51.728;6.674;2024-03-02T10:07:18;75578.63;;;-141.64;63.43
47753;BME280;2038;51.728;6.674;2024-03-02T10:09:48;75572.75;;;-141.64;62.81
47753;BME280;2038;51.728;6.674;2024-03-02T10:12:18;75570.81;;;-141.64;63.33
47753;BME280;2038;51.728;6.674;2024-03-02T10:14:45;75563.00;;;-141.64;62.97
47753;BME280;2038;51.728;6.674;2024-03-02T10:17:12;75559.09;;;-141.64;63.32
47753;BME280;2038;51.728;6.674;2024-03-02T10:19:40;75557.16;;;-141.64;62.83
47753;BME280;2038;51.728;6.674;2024-03-02T10:22:08;75559.09;;;-141.64;62.44
47753;BME280;2038;51.728;6.674;2024-03-02T10:24:40;75561.06;;;-141.64;62.62
47753;BME280;2038;51.728;6.674;2024-03-02T10:27:22;75559.09;;;-141.64;62.29
47753;BME280;2038;51.728;6.674;2024-03-02T10:29:51;75561.06;;;-141.64;61.77
47753;BME280;2038;51.728;6.674;2024-03-02T10:32:17;75553.25;;;-141.64;62.10
47753;BME280;2038;51.728;6.674;2024-03-02T10:34:45;75551.28;;;-141.64;62.14
47753;BME280;2038;51.728;6.674;2024-03-02T10:37:14;75547.38;;;-141.64;62.32
47753;BME280;2038;51.728;6.674;2024-03-02T10:39:43;75535.69;;;-141.64;62.47
47753;BME280;2038;51.728;6.674;2024-03-02T10:42:12;75525.91;;;-141.64;61.80
47753;BME280;2038;51.728;6.674;2024-03-02T10:44:40;75516.16;;;-141.64;61.92
47753;BME280;2038;51.728;6.674;2024-03-02T10:47:09;75508.34;;;-141.64;62.58
47753;BME280;2038;51.728;6.674;2024-03-02T10:49:39;75504.44;;;-141.64;61.08
47753;BME280;2038;51.728;6.674;2024-03-02T10:52:08;75498.59;;;-141.64;61.24
47753;BME280;2038;51.728;6.674;2024-03-02T10:54:35;75492.72;;;-141.64;61.02
47753;BME280;2038;51.728;6.674;2024-03-02T10:57:08;75488.84;;;-141.64;60.10
47753;BME280;2038;51.728;6.674;2024-03-02T10:59:40;75475.16;;;-141.64;60.62
47753;BME280;2038;51.728;6.674;2024-03-02T11:02:18;75475.16;;;-141.64;60.69
47753;BME280;2038;51.728;6.674;2024-03-02T11:04:48;75461.50;;;-141.64;60.46
47753;BME280;2038;51.728;6.674;2024-03-02T11:07:18;75445.88;;;-141.64;60.54
47753;BME280;2038;51.728;6.674;2024-03-02T11:09:56;75443.94;;;-141.64;59.23
47753;BME280;2038;51.728;6.674;2024-03-02T11:12:48;75443.94;;;-141.64;59.29
47753;BME280;2038;51.728;6.674;2024-03-02T11:15:26;75438.09;;;-141.64;59.93
47753;BME280;2038;51.728;6.674;2024-03-02T11:17:54;75440.03;;;-141.64;59.33
47753;BME280;2038;51.728;6.674;2024-03-02T11:20:21;75434.19;;;-141.64;60.30
47753;BME280;2038;51.728;6.674;2024-03-02T11:22:49;75428.31;;;-141.64;60.01
47753;BME280;2038;51.728;6.674;2024-03-02T11:25:26;75418.56;;;-141.64;59.45
47753;BME280;2038;51.728;6.674;2024-03-02T11:33:07;75399.03;;;-141.64;58.38
47753;BME280;2038;51.728;6.674;2024-03-02T11:35:38;75395.13;;;-141.64;58.31
47753;BME280;2038;51.728;6.674;2024-03-02T11:38:14;75395.13;;;-141.64;58.40
47753;BME280;2038;51.728;6.674;2024-03-02T11:40:41;75383.44;;;-141.64;58.60
47753;BME280;2038;51.728;6.674;2024-03-02T11:43:07;75377.56;;;-141.64;58.31
47753;BME280;2038;51.728;6.674;2024-03-02T11:45:36;75367.81;;;-141.64;58.60
47753;BME280;2038;51.728;6.674;2024-03-02T11:48:06;75360.00;;;-141.64;59.17
47753;BME280;2038;51.728;6.674;2024-03-02T11:50:47;75346.34;;;-141.64;59.01
47753;BME280;2038;51.728;6.674;2024-03-02T11:53:16;75330.72;;;-141.64;58.57
47753;BME280;2038;51.728;6.674;2024-03-02T11:55:43;75322.94;;;-141.64;57.85
47753;BME280;2038;51.728;6.674;2024-03-02T11:58:13;75301.44;;;-141.64;57.39
47753;BME280;2038;51.728;6.674;2024-03-02T12:00:39;75295.59;;;-141.64;57.78
47753;BME280;2038;51.728;6.674;2024-03-02T12:03:07;75291.69;;;-141.64;57.28
47753;BME280;2038;51.728;6.674;2024-03-02T12:05:35;75289.75;;;-141.64;56.83
47753;BME280;2038;51.728;6.674;2024-03-02T12:08:06;75285.84;;;-141.64;56.70
47753;BME280;2038;51.728;6.674;2024-03-02T12:10:34;75279.97;;;-141.64;57.68
47753;BME280;2038;51.728;6.674;2024-03-02T12:13:04;75274.13;;;-141.64;56.46
47753;BME280;2038;51.728;6.674;2024-03-02T12:15:38;75260.47;;;-141.64;56.25
47753;BME280;2038;51.728;6.674;2024-03-02T12:18:05;75246.81;;;-141.64;57.11
47753;BME280;2038;51.728;6.674;2024-03-02T12:20:33;75250.72;;;-141.64;55.59
47753;BME280;2038;51.728;6.674;2024-03-02T12:23:01;75242.91;;;-141.64;56.11
47753;BME280;2038;51.728;6.674;2024-03-02T12:25:29;75233.16;;;-141.64;56.55
47753;BME280;2038;51.728;6.674;2024-03-02T12:28:00;75223.38;;;-141.64;55.88
47753;BME280;2038;51.728;6.674;2024-03-02T12:30:30;75223.38;;;-141.64;54.90
47753;BME280;2038;51.728;6.674;2024-03-02T12:32:57;75221.44;;;-141.64;55.27
47753;BME280;2038;51.728;6.674;2024-03-02T12:35:25;75227.28;;;-141.64;55.84
47753;BME280;2038;51.728;6.674;2024-03-02T12:37:52;75242.91;;;-141.64;55.17
47753;BME280;2038;51.728;6.674;2024-03-02T12:40:20;75252.66;;;-141.64;55.51
47753;BME280;2038;51.728;6.674;2024-03-02T12:42:49;75258.50;;;-141.64;55.52
47753;BME280;2038;51.728;6.674;2024-03-02T12:45:16;75285.84;;;-141.64;56.22
47753;BME280;2038;51.728;6.674;2024-03-02T12:47:50;75279.97;;;-141.64;56.27
47753;BME280;2038;51.728;6.674;2024-03-02T12:50:20;75276.09;;;-141.64;56.53
47753;BME280;2038;51.728;6.674;2024-03-02T12:52:53;75270.22;;;-141.64;56.80
47753;BME280;2038;51.728;6.674;2024-03-02T12:55:22;75252.66;;;-141.64;56.45
47753;BME280;2038;51.728;6.674;2024-03-02T12:57:53;75248.75;;;-141.64;56.56
47753;BME280;2038;51.728;6.674;2024-03-02T13:00:21;75235.09;;;-141.64;57.15
47753;BME280;2038;51.728;6.674;2024-03-02T13:02:47;75231.19;;;-141.64;56.36